Time;durP1;ratioP1;P1;durP2;ratioP2;P2;SDS_P1;SDS_P2;PMS_P1;PMS_P2;Temp;Humidity;BMP_temperature;BMP_pressure;BME280_temperature;BME280_humidity;BME280_pressure;Samples;Min_cycle;Max_cycle;Signal;HPM_P1;HPM_P2
2023/05/20 00:01:27;;;;;;;29.02;20.83;;;16.10;99.90;;;;;;5013362;28;20109;-46
2023/05/20 00:03:52;;;;;;;31.90;22.38;;;16.10;99.90;;;;;;5013651;28;20388;-46
2023/05/20 00:06:18;;;;;;;30.15;20.45;;;16.10;99.90;;;;;;5013735;28;20030;-46
2023/05/20 00:08:44;;;;;;;37.53;22.33;;;16.10;99.90;;;;;;5013791;28;20045;-46
2023/05/20 00:11:10;;;;;;;27.52;19.92;;;16.10;99.90;;;;;;5013447;28;20041;-45
2023/05/20 00:13:36;;;;;;;29.15;21.38;;;16.10;99.90;;;;;;5013257;28;20030;-46
2023/05/20 00:16:01;;;;;;;31.52;21.42;;;16.10;99.90;;;;;;5013332;28;20030;-45
2023/05/20 00:18:27;;;;;;;32.55;21.02;;;16.10;99.90;;;;;;5013333;28;20025;-46
2023/05/20 00:20:53;;;;;;;35.90;22.08;;;16.20;99.90;;;;;;5013374;28;20037;-46
2023/05/20 00:23:19;;;;;;;34.95;22.70;;;16.10;99.90;;;;;;5012405;28;20041;-46
2023/05/20 00:25:44;;;;;;;30.92;22.75;;;16.10;99.90;;;;;;4995135;28;20030;-48
2023/05/20 00:28:10;;;;;;;36.70;22.70;;;16.10;99.90;;;;;;5013091;28;20048;-48
2023/05/20 00:30:40;;;;;;;36.95;21.52;;;16.10;99.90;;;;;;5012931;28;20034;-45
2023/05/20 00:33:05;;;;;;;32.45;21.95;;;16.10;99.90;;;;;;5013395;28;20515;-45
2023/05/20 00:35:31;;;;;;;30.77;21.55;;;16.10;99.90;;;;;;5013197;28;20022;-50
2023/05/20 00:37:57;;;;;;;29.95;20.58;;;16.10;99.90;;;;;;5012471;28;20034;-45
2023/05/20 00:40:24;;;;;;;27.98;20.63;;;16.10;99.90;;;;;;4994812;28;20117;-48
2023/05/20 00:42:49;;;;;;;31.25;23.40;;;16.10;99.90;;;;;;5012870;28;20032;-46
2023/05/20 00:45:16;;;;;;;30.95;21.65;;;16.10;99.90;;;;;;5012846;28;20391;-48
2023/05/20 00:47:42;;;;;;;32.97;22.02;;;16.00;99.90;;;;;;5012388;28;20109;-45
2023/05/20 00:50:09;;;;;;;35.65;24.33;;;16.10;99.90;;;;;;5013030;28;20488;-45
2023/05/20 00:52:40;;;;;;;28.50;21.23;;;16.10;99.90;;;;;;5012654;28;20029;-45
2023/05/20 00:55:06;;;;;;;38.58;22.25;;;16.10;99.90;;;;;;5012940;28;20033;-49
2023/05/20 00:57:32;;;;;;;33.03;22.38;;;16.10;99.90;;;;;;5012724;28;20026;-48
2023/05/20 00:59:58;;;;;;;31.67;23.15;;;16.10;99.90;;;;;;5013177;28;20025;-48
2023/05/20 01:02:24;;;;;;;32.03;20.67;;;16.10;99.90;;;;;;5012958;28;20029;-45
2023/05/20 01:04:50;;;;;;;33.90;22.55;;;16.10;99.90;;;;;;5012875;28;20264;-50
2023/05/20 01:07:16;;;;;;;27.50;21.42;;;16.10;99.90;;;;;;5012515;28;20026;-47
2023/05/20 01:09:43;;;;;;;30.98;20.95;;;16.10;99.90;;;;;;5012768;28;20022;-46
2023/05/20 01:12:12;;;;;;;26.27;19.15;;;16.10;99.90;;;;;;5012799;28;20101;-48
2023/05/20 01:14:49;;;;;;;34.72;21.48;;;16.10;99.90;;;;;;4995034;28;20030;-46
2023/05/20 01:17:19;;;;;;;28.40;19.25;;;16.10;99.90;;;;;;5012523;28;20025;-46
2023/05/20 01:19:47;;;;;;;27.75;21.45;;;16.10;99.90;;;;;;5012661;28;20395;-47
2023/05/20 01:22:14;;;;;;;36.58;22.13;;;16.10;99.90;;;;;;5012183;28;20022;-47
2023/05/20 01:24:47;;;;;;;36.38;23.42;;;16.10;99.90;;;;;;5012404;28;20033;-47
2023/05/20 01:27:13;;;;;;;34.85;21.98;;;16.00;99.90;;;;;;5011986;28;20060;-46
2023/05/20 01:29:40;;;;;;;37.90;24.27;;;16.00;99.90;;;;;;5011633;28;20041;-47
2023/05/20 01:32:11;;;;;;;42.92;25.17;;;15.90;99.90;;;;;;5009724;28;20514;-45
2023/05/20 01:34:40;;;;;;;40.95;24.27;;;15.90;99.90;;;;;;5011744;28;20117;-46
2023/05/20 01:37:07;;;;;;;44.22;24.80;;;15.90;99.90;;;;;;5012133;28;20483;-47
2023/05/20 01:39:36;;;;;;;37.97;24.02;;;15.90;99.90;;;;;;5011991;28;20080;-48
2023/05/20 01:42:03;;;;;;;38.50;23.90;;;16.00;99.90;;;;;;5011918;28;20400;-50
2023/05/20 01:44:29;;;;;;;34.05;22.73;;;15.90;99.90;;;;;;5011868;28;20121;-50
2023/05/20 01:46:55;;;;;;;33.60;21.27;;;15.90;99.90;;;;;;4993832;28;20117;-46
2023/05/20 01:49:21;;;;;;;34.40;20.50;;;15.90;99.90;;;;;;5011897;28;20637;-45
2023/05/20 01:51:46;;;;;;;33.75;20.85;;;16.00;99.90;;;;;;4994376;28;20456;-48
2023/05/20 01:54:12;;;;;;;32.00;21.92;;;16.00;99.90;;;;;;5011802;28;20037;-45
2023/05/20 01:56:38;;;;;;;36.78;23.02;;;16.00;99.90;;;;;;5011965;28;20489;-49
2023/05/20 01:59:03;;;;;;;34.70;22.35;;;15.90;99.90;;;;;;5011156;28;20053;-46
2023/05/20 02:01:29;;;;;;;37.80;24.58;;;15.90;99.90;;;;;;5010866;28;20037;-46
2023/05/20 02:03:55;;;;;;;37.38;23.63;;;15.80;99.90;;;;;;5011627;28;20025;-46
2023/05/20 02:06:20;;;;;;;44.80;27.25;;;15.80;99.90;;;;;;5011925;28;20030;-48
2023/05/20 02:08:46;;;;;;;41.25;25.48;;;15.80;99.90;;;;;;5011115;28;20029;-46
2023/05/20 02:11:12;;;;;;;38.03;23.27;;;15.80;99.90;;;;;;5011660;28;20034;-49
2023/05/20 02:13:38;;;;;;;32.10;21.50;;;15.80;99.90;;;;;;5011859;28;20037;-50
2023/05/20 02:16:04;;;;;;;34.83;22.58;;;15.80;99.90;;;;;;5011129;28;20049;-47
2023/05/20 02:18:31;;;;;;;34.95;22.38;;;15.80;99.90;;;;;;5011156;28;20095;-49
2023/05/20 02:21:06;;;;;;;;;;;15.90;99.90;;;;;;5012022;28;20145;-49
2023/05/20 02:23:31;;;;;;;38.17;24.05;;;15.80;99.90;;;;;;4993719;28;20012;-46
2023/05/20 02:25:57;;;;;;;31.95;23.48;;;15.80;99.90;;;;;;5011233;28;20147;-47
2023/05/20 02:28:23;;;;;;;34.35;23.38;;;15.80;99.90;;;;;;5012043;28;20026;-44
2023/05/20 02:30:51;;;;;;;39.33;25.70;;;15.80;99.90;;;;;;5011092;28;20076;-50
2023/05/20 02:33:17;;;;;;;36.08;23.08;;;15.80;99.90;;;;;;5011975;28;20490;-45
2023/05/20 02:35:43;;;;;;;37.10;23.95;;;15.90;99.90;;;;;;5011135;28;20041;-46
2023/05/20 02:38:10;;;;;;;33.78;24.13;;;15.80;99.90;;;;;;5010149;28;20034;-48
2023/05/20 02:40:36;;;;;;;40.33;26.88;;;15.90;99.90;;;;;;5010285;28;20449;-50
2023/05/20 02:43:02;;;;;;;39.58;26.15;;;15.90;99.90;;;;;;5011257;28;20097;-51
2023/05/20 02:45:27;;;;;;;39.78;24.45;;;15.80;99.90;;;;;;5011036;28;20455;-48
2023/05/20 02:47:53;;;;;;;35.90;25.05;;;15.80;99.90;;;;;;5011169;28;20084;-50
2023/05/20 02:50:19;;;;;;;36.95;23.75;;;15.90;99.90;;;;;;5010982;28;20037;-53
2023/05/20 02:52:46;;;;;;;34.30;24.45;;;15.80;99.90;;;;;;4984592;28;20037;-48
2023/05/20 02:55:12;;;;;;;34.92;23.85;;;15.80;99.90;;;;;;5011021;28;20033;-53
2023/05/20 02:57:38;;;;;;;39.67;25.87;;;15.80;99.90;;;;;;5010920;28;20093;-49
2023/05/20 03:00:12;;;;;;;35.38;24.88;;;15.80;99.90;;;;;;5011285;28;20256;-51
2023/05/20 03:02:38;;;;;;;36.95;25.63;;;15.80;99.90;;;;;;4998370;28;20484;-52
2023/05/20 03:05:04;;;;;;;36.50;24.58;;;15.80;99.90;;;;;;5010748;28;20538;-53
2023/05/20 03:07:30;;;;;;;38.80;25.17;;;15.80;99.90;;;;;;5010970;28;20029;-49
2023/05/20 03:09:58;;;;;;;39.60;25.23;;;15.80;99.90;;;;;;4977319;28;20038;-49
2023/05/20 03:12:25;;;;;;;34.85;24.77;;;15.80;99.90;;;;;;4996185;28;20277;-45
2023/05/20 03:14:54;;;;;;;;;;;15.80;99.90;;;;;;5001080;28;20060;-49
2023/05/20 03:17:20;;;;;;;39.28;25.08;;;15.70;99.90;;;;;;4996792;28;19913;-51
2023/05/20 03:19:46;;;;;;;34.08;23.95;;;15.70;99.90;;;;;;5015069;28;20097;-46
2023/05/20 03:22:12;;;;;;;38.70;25.20;;;15.70;99.90;;;;;;5014825;28;20117;-51
2023/05/20 03:24:37;;;;;;;37.15;24.77;;;15.70;99.90;;;;;;5014760;28;20378;-49
2023/05/20 03:27:03;;;;;;;34.22;23.67;;;15.70;99.90;;;;;;5014272;28;20034;-46
2023/05/20 03:29:30;;;;;;;36.17;25.00;;;15.70;99.90;;;;;;5014373;28;20496;-50
2023/05/20 03:31:56;;;;;;;41.88;26.13;;;15.70;99.90;;;;;;5014590;28;20034;-48
2023/05/20 03:34:21;;;;;;;34.47;25.33;;;15.60;99.90;;;;;;5014591;28;20014;-47
2023/05/20 03:36:47;;;;;;;42.42;24.55;;;15.70;99.90;;;;;;5013954;28;20112;-53
2023/05/20 03:39:13;;;;;;;31.65;22.75;;;15.70;99.90;;;;;;5012744;28;20448;-46
2023/05/20 03:41:38;;;;;;;32.95;22.73;;;15.80;99.90;;;;;;5013914;28;20038;-53
2023/05/20 03:44:04;;;;;;;36.40;24.00;;;15.80;99.90;;;;;;5014494;28;20022;-49
2023/05/20 03:46:31;;;;;;;32.05;22.52;;;15.80;99.90;;;;;;5013863;28;20038;-53
2023/05/20 03:48:57;;;;;;;29.67;23.45;;;15.80;99.90;;;;;;5014133;28;20022;-48
2023/05/20 03:51:22;;;;;;;31.60;23.48;;;15.80;99.90;;;;;;5014024;28;20033;-48
2023/05/20 03:53:48;;;;;;;29.95;22.70;;;15.80;99.90;;;;;;5013920;28;20037;-52
2023/05/20 03:56:14;;;;;;;31.73;22.80;;;15.80;99.90;;;;;;5010214;28;20034;-53
2023/05/20 03:58:39;;;;;;;31.92;22.27;;;15.80;99.90;;;;;;5012323;28;20045;-51
2023/05/20 04:01:05;;;;;;;31.15;22.23;;;15.80;99.90;;;;;;5012465;28;20416;-50
2023/05/20 04:03:31;;;;;;;29.23;20.75;;;15.80;99.90;;;;;;5012755;28;20164;-50
2023/05/20 04:05:56;;;;;;;25.55;20.08;;;15.80;99.90;;;;;;5012019;28;20026;-50
2023/05/20 04:08:24;;;;;;;31.40;21.83;;;15.80;99.90;;;;;;5011746;28;20392;-52
2023/05/20 04:10:54;;;;;;;25.35;19.15;;;15.90;99.90;;;;;;5012001;28;20395;-50
2023/05/20 04:13:20;;;;;;;29.98;21.15;;;15.90;99.90;;;;;;4994522;28;20215;-49
2023/05/20 04:15:46;;;;;;;28.50;22.40;;;15.90;99.90;;;;;;5012120;28;20093;-50
2023/05/20 04:21:34;;;;;;;25.08;19.30;;;15.90;99.90;;;;;;4994688;28;20527;-45
2023/05/20 04:24:00;;;;;;;25.17;18.13;;;15.90;99.90;;;;;;4976115;28;20026;-48
2023/05/20 04:26:26;;;;;;;26.27;18.27;;;15.90;99.90;;;;;;4993931;28;20084;-45
2023/05/20 04:28:51;;;;;;;28.10;19.33;;;15.90;99.90;;;;;;4976364;28;20113;-55
2023/05/20 04:31:17;;;;;;;23.58;18.58;;;15.90;99.90;;;;;;4994201;28;20029;-54
2023/05/20 04:33:43;;;;;;;25.65;18.85;;;15.90;99.90;;;;;;4976433;28;20026;-48
2023/05/20 04:36:15;;;;;;;22.35;18.35;;;15.90;99.90;;;;;;4993776;28;20033;-52
2023/05/20 04:38:41;;;;;;;22.23;18.42;;;15.90;99.90;;;;;;4993795;28;20034;-54
2023/05/20 04:41:08;;;;;;;22.42;18.35;;;15.90;99.90;;;;;;4993890;28;20022;-49
2023/05/20 04:43:34;;;;;;;23.48;18.00;;;16.00;99.90;;;;;;4993822;28;20031;-51
2023/05/20 04:46:00;;;;;;;22.67;18.33;;;16.00;99.90;;;;;;4976231;28;20035;-52
2023/05/20 04:48:26;;;;;;;21.43;16.80;;;16.00;99.90;;;;;;4993497;28;20413;-51
2023/05/20 04:50:53;;;;;;;31.05;19.25;;;16.00;99.90;;;;;;4993338;28;20484;-54
2023/05/20 04:53:20;;;;;;;22.23;16.63;;;16.00;99.90;;;;;;4993618;28;20524;-50
2023/05/20 04:55:47;;;;;;;21.63;18.00;;;16.00;99.90;;;;;;4975942;28;20489;-53
2023/05/20 04:58:16;;;;;;;21.38;16.42;;;16.10;99.90;;;;;;4993344;28;20101;-48
2023/05/20 05:00:45;;;;;;;20.95;16.10;;;16.20;99.90;;;;;;4993366;28;20372;-50
2023/05/20 05:03:14;;;;;;;19.40;15.40;;;16.20;99.90;;;;;;4975939;28;20392;-52
2023/05/20 05:05:41;;;;;;;19.45;15.18;;;16.20;99.90;;;;;;4993462;28;20443;-53
2023/05/20 05:08:07;;;;;;;19.70;15.10;;;16.20;99.90;;;;;;4993222;28;20023;-51
2023/05/20 05:10:34;;;;;;;24.02;17.10;;;16.20;99.90;;;;;;4975868;28;20062;-53
2023/05/20 05:13:00;;;;;;;20.42;15.80;;;16.20;99.90;;;;;;4993157;28;20088;-47
2023/05/20 05:15:26;;;;;;;21.80;16.15;;;16.20;99.90;;;;;;4993100;28;20026;-53
2023/05/20 05:17:52;;;;;;;20.38;15.40;;;16.20;99.90;;;;;;4992968;28;20493;-50
2023/05/20 05:20:19;;;;;;;19.08;15.15;;;16.20;99.90;;;;;;4993391;28;20037;-54
2023/05/20 05:22:45;;;;;;;19.95;16.52;;;16.30;99.90;;;;;;4993172;28;20101;-50
2023/05/20 05:25:11;;;;;;;20.80;15.57;;;16.30;99.90;;;;;;4993060;28;20034;-53
2023/05/20 05:27:37;;;;;;;26.40;15.63;;;16.30;99.90;;;;;;4992980;28;20033;-52
2023/05/20 05:30:05;;;;;;;29.40;15.82;;;16.30;99.90;;;;;;4992910;28;20203;-52
2023/05/20 05:32:31;;;;;;;23.50;17.02;;;16.30;99.90;;;;;;4993148;28;20088;-50
2023/05/20 05:34:56;;;;;;;22.35;16.48;;;16.30;99.90;;;;;;4975397;28;20030;-48
2023/05/20 05:37:22;;;;;;;23.52;15.98;;;16.30;99.90;;;;;;4975282;28;20026;-49
2023/05/20 05:39:48;;;;;;;19.08;15.73;;;16.20;99.90;;;;;;4992763;28;20033;-49
2023/05/20 05:42:14;;;;;;;18.13;15.15;;;16.30;99.90;;;;;;4992602;28;20023;-51
2023/05/20 05:44:40;;;;;;;19.40;14.95;;;16.30;99.90;;;;;;4992617;28;20049;-50
2023/05/20 05:47:06;;;;;;;24.02;15.75;;;16.30;99.90;;;;;;4992378;28;20031;-53
2023/05/20 05:49:32;;;;;;;20.98;14.85;;;16.40;99.90;;;;;;4992655;28;20021;-47
2023/05/20 05:51:58;;;;;;;18.23;14.60;;;16.30;99.90;;;;;;4992538;28;20022;-55
2023/05/20 05:54:24;;;;;;;22.80;15.63;;;16.30;99.90;;;;;;4992438;28;20473;-50
2023/05/20 05:56:55;;;;;;;20.45;14.68;;;16.40;99.90;;;;;;4992366;28;20031;-56
2023/05/20 05:59:21;;;;;;;21.08;15.70;;;16.40;99.90;;;;;;4992395;28;20030;-52
2023/05/20 06:01:47;;;;;;;18.98;15.27;;;16.40;99.90;;;;;;4992446;28;20027;-55
2023/05/20 06:04:13;;;;;;;22.95;16.10;;;16.40;99.90;;;;;;4992567;28;20061;-54
2023/05/20 06:06:40;;;;;;;20.75;14.48;;;16.40;99.90;;;;;;4992526;28;20110;-48
2023/05/20 06:09:06;;;;;;;25.63;15.50;;;16.40;99.90;;;;;;4992596;28;20393;-50
2023/05/20 06:11:31;;;;;;;26.30;15.98;;;16.40;99.90;;;;;;4992341;28;20038;-52
2023/05/20 06:13:57;;;;;;;17.38;14.52;;;16.50;99.90;;;;;;4992325;28;20045;-49
2023/05/20 06:16:23;;;;;;;22.65;16.48;;;16.50;99.90;;;;;;4992219;28;20081;-48
2023/05/20 06:18:49;;;;;;;21.60;15.93;;;16.50;99.90;;;;;;4992206;28;20081;-50
2023/05/20 06:21:15;;;;;;;20.08;15.00;;;16.50;99.90;;;;;;4992312;28;20389;-47
2023/05/20 06:23:41;;;;;;;21.20;14.57;;;16.50;99.90;;;;;;5001118;28;20022;-48
2023/05/20 06:26:06;;;;;;;30.00;17.38;;;16.50;99.90;;;;;;5011537;28;20033;-45
2023/05/20 06:28:32;;;;;;;17.85;15.05;;;16.50;99.90;;;;;;5010445;28;20457;-45
2023/05/20 06:30:58;;;;;;;19.70;15.55;;;16.40;99.90;;;;;;5011838;28;20037;-48
2023/05/20 06:33:25;;;;;;;24.77;16.67;;;16.40;99.90;;;;;;5011431;28;20034;-51
2023/05/20 06:35:55;;;;;;;22.10;15.55;;;16.40;99.90;;;;;;5011651;28;20112;-47
2023/05/20 06:38:21;;;;;;;33.85;16.58;;;16.50;99.90;;;;;;5011129;28;20550;-48
2023/05/20 06:40:48;;;;;;;22.63;15.75;;;16.50;99.90;;;;;;5011669;28;20022;-47
2023/05/20 06:43:14;;;;;;;22.55;16.75;;;16.50;99.90;;;;;;5011217;28;20018;-45
2023/05/20 06:45:40;;;;;;;26.10;17.63;;;16.50;99.90;;;;;;5012318;28;20496;-45
2023/05/20 06:48:06;;;;;;;25.70;18.42;;;16.50;99.90;;;;;;5015028;28;20111;-48
2023/05/20 06:50:32;;;;;;;21.00;17.13;;;16.40;99.90;;;;;;5015471;28;20164;-47
2023/05/20 06:52:57;;;;;;;24.38;17.38;;;16.40;99.90;;;;;;5015085;28;20112;-51
2023/05/20 06:55:23;;;;;;;25.25;17.17;;;16.40;99.90;;;;;;4997733;28;20034;-49
2023/05/20 06:57:49;;;;;;;26.50;17.30;;;16.30;99.90;;;;;;5014656;28;20120;-51
2023/05/20 07:00:15;;;;;;;21.85;17.00;;;16.30;99.90;;;;;;5015462;28;20026;-46
2023/05/20 07:02:42;;;;;;;23.58;16.38;;;16.30;99.90;;;;;;5014853;28;20026;-49
2023/05/20 07:05:08;;;;;;;;;;;16.40;99.90;;;;;;5015699;28;20033;-47
2023/05/20 07:07:33;;;;;;;24.75;17.42;;;16.40;99.90;;;;;;5014554;28;19909;-47
2023/05/20 07:09:59;;;;;;;27.52;18.40;;;16.50;99.90;;;;;;5015133;28;20105;-49
2023/05/20 07:12:25;;;;;;;25.73;15.77;;;16.50;99.90;;;;;;5014677;28;20373;-47
2023/05/20 07:14:51;;;;;;;19.80;15.27;;;16.50;99.90;;;;;;5014903;28;20064;-47
2023/05/20 07:17:16;;;;;;;22.88;16.40;;;16.60;99.90;;;;;;5014218;28;20472;-46
2023/05/20 07:19:42;;;;;;;27.52;21.40;;;16.60;99.90;;;;;;5014950;28;20030;-45
2023/05/20 07:22:08;;;;;;;26.75;19.02;;;16.60;99.90;;;;;;4997009;28;20025;-50
2023/05/20 07:24:35;;;;;;;32.35;19.90;;;16.70;99.90;;;;;;4997201;28;20129;-54
2023/05/20 07:27:00;;;;;;;21.25;16.45;;;16.70;99.90;;;;;;5014167;28;20033;-52
2023/05/20 07:29:26;;;;;;;25.50;16.83;;;16.70;99.90;;;;;;5014592;28;20037;-56
2023/05/20 07:31:52;;;;;;;25.90;16.38;;;16.70;99.90;;;;;;5014458;28;20392;-51
2023/05/20 07:34:18;;;;;;;44.42;31.02;;;16.70;99.90;;;;;;5014662;28;20037;-48
2023/05/20 07:36:44;;;;;;;35.90;27.65;;;16.80;99.90;;;;;;5014146;28;20496;-48
2023/05/20 07:39:10;;;;;;;33.88;25.48;;;16.80;99.90;;;;;;5014256;28;20036;-50
2023/05/20 07:41:37;;;;;;;33.55;22.75;;;16.80;99.90;;;;;;5014338;28;20018;-51
2023/05/20 07:44:04;;;;;;;24.45;20.35;;;16.90;99.90;;;;;;5014361;28;20109;-48
2023/05/20 07:46:30;;;;;;;23.13;17.83;;;16.90;99.90;;;;;;4996629;28;20076;-50
2023/05/20 07:48:56;;;;;;;26.67;19.37;;;16.90;99.90;;;;;;4994227;28;20027;-53
2023/05/20 07:51:21;;;;;;;27.45;18.60;;;16.90;99.90;;;;;;4994491;28;20096;-48
2023/05/20 07:53:47;;;;;;;22.02;16.65;;;16.90;99.90;;;;;;4993436;28;20613;-47
2023/05/20 07:56:13;;;;;;;24.92;16.50;;;16.90;99.90;;;;;;4994684;28;20036;-55
2023/05/20 07:58:41;;;;;;;20.80;16.25;;;16.90;99.90;;;;;;4993423;28;20504;-52
2023/05/20 08:01:08;;;;;;;24.25;17.92;;;17.00;99.90;;;;;;4994679;28;20077;-50
2023/05/20 08:03:35;;;;;;;21.95;15.15;;;16.90;99.90;;;;;;4994663;28;20050;-53
2023/05/20 08:06:01;;;;;;;20.35;16.77;;;17.00;99.90;;;;;;4994469;28;20042;-54
2023/05/20 08:08:29;;;;;;;25.42;17.63;;;16.90;99.90;;;;;;4994378;28;20393;-54
2023/05/20 08:10:55;;;;;;;21.75;15.60;;;17.00;99.90;;;;;;4994534;28;20080;-51
2023/05/20 08:13:21;;;;;;;20.80;16.47;;;17.10;99.90;;;;;;4994560;28;20057;-50
2023/05/20 08:15:47;;;;;;;22.33;15.27;;;17.10;99.90;;;;;;4994265;28;20030;-53
2023/05/20 08:18:14;;;;;;;18.73;14.30;;;17.20;99.90;;;;;;4994200;28;20030;-50
2023/05/20 08:20:41;;;;;;;17.92;14.60;;;17.30;99.90;;;;;;4994288;28;20065;-48
2023/05/20 08:23:07;;;;;;;14.80;12.82;;;17.30;99.90;;;;;;4994286;28;20092;-49
2023/05/20 08:25:32;;;;;;;18.80;14.13;;;17.40;99.90;;;;;;4994194;28;20561;-50
2023/05/20 08:28:02;;;;;;;18.92;14.27;;;17.50;99.90;;;;;;4991684;28;20054;-47
2023/05/20 08:30:29;;;;;;;17.65;13.50;;;17.60;99.90;;;;;;4994202;28;20045;-52
2023/05/20 08:32:55;;;;;;;15.23;12.60;;;17.70;99.90;;;;;;4994298;28;20494;-55
2023/05/20 08:35:21;;;;;;;16.88;13.45;;;17.80;99.90;;;;;;4994062;28;20571;-51
2023/05/20 08:37:47;;;;;;;15.48;11.30;;;17.90;99.90;;;;;;4993764;28;20022;-54
2023/05/20 08:40:13;;;;;;;14.32;10.98;;;17.90;99.90;;;;;;4993954;28;20029;-52
2023/05/20 08:42:42;;;;;;;13.90;11.48;;;17.90;99.90;;;;;;4993988;28;20034;-48
2023/05/20 08:45:12;;;;;;;12.88;11.38;;;17.80;99.90;;;;;;4993880;28;20388;-51
2023/05/20 08:47:43;;;;;;;14.82;11.90;;;17.80;99.90;;;;;;4993512;28;20038;-56
2023/05/20 08:50:11;;;;;;;14.80;12.50;;;17.70;99.90;;;;;;4993818;28;20026;-53
2023/05/20 08:52:43;;;;;;;15.38;12.25;;;17.70;99.90;;;;;;4993886;28;20042;-51
2023/05/20 08:55:32;;;;;;;14.40;11.70;;;17.60;99.90;;;;;;4993814;28;20026;-55
2023/05/20 08:57:58;;;;;;;14.18;10.63;;;17.60;99.90;;;;;;4993251;28;20027;-52
2023/05/20 09:00:27;;;;;;;16.40;11.98;;;17.70;99.90;;;;;;4993462;28;20457;-54
2023/05/20 09:02:54;;;;;;;14.45;12.18;;;17.60;99.90;;;;;;4992336;28;20447;-52
2023/05/20 09:05:21;;;;;;;13.20;11.70;;;17.60;99.90;;;;;;4993429;28;20037;-47
2023/05/20 09:07:46;;;;;;;14.68;11.75;;;17.60;99.90;;;;;;4993208;28;20073;-47
2023/05/20 09:10:13;;;;;;;14.70;11.32;;;17.70;99.90;;;;;;4993123;28;20030;-49
2023/05/20 09:12:38;;;;;;;18.58;11.38;;;17.70;99.90;;;;;;4993181;28;20030;-49
2023/05/20 09:15:05;;;;;;;14.40;11.32;;;17.80;99.90;;;;;;4993051;28;20122;-48
2023/05/20 09:17:35;;;;;;;14.32;11.73;;;17.80;99.90;;;;;;4992943;28;20062;-49
2023/05/20 09:20:05;;;;;;;13.90;11.95;;;17.90;99.90;;;;;;4992119;28;20053;-48
2023/05/20 09:22:30;;;;;;;14.25;11.90;;;18.00;99.90;;;;;;4993129;28;20035;-49
2023/05/20 09:24:56;;;;;;;16.10;11.60;;;18.00;99.90;;;;;;4993041;28;20014;-47
2023/05/20 09:27:23;;;;;;;16.08;11.57;;;18.10;99.90;;;;;;4992479;28;20541;-48
2023/05/20 09:29:50;;;;;;;;;;;18.20;99.90;;;;;;4993579;28;20053;-50
2023/05/20 09:32:18;;;;;;;15.73;11.13;;;18.20;99.90;;;;;;4993007;28;19905;-53
2023/05/20 09:34:46;;;;;;;14.85;12.38;;;18.10;99.90;;;;;;4992814;28;20022;-53
2023/05/20 09:37:16;;;;;;;13.98;10.68;;;18.10;99.90;;;;;;4992578;28;20025;-55
2023/05/20 09:40:02;;;;;;;14.52;12.15;;;18.10;99.90;;;;;;4992707;28;20104;-55
2023/05/20 09:42:41;;;;;;;15.02;11.05;;;18.20;99.90;;;;;;4975247;28;20054;-49
2023/05/20 09:45:10;;;;;;;13.80;10.65;;;18.30;99.90;;;;;;4992734;28;20034;-52
2023/05/20 09:47:39;;;;;;;14.68;10.95;;;18.30;99.90;;;;;;4974928;28;20121;-50
2023/05/20 09:50:07;;;;;;;14.57;11.57;;;18.30;99.90;;;;;;4992987;28;20392;-53
2023/05/20 09:52:36;;;;;;;13.50;11.75;;;18.40;99.90;;;;;;4992533;28;20101;-52
2023/05/20 09:55:05;;;;;;;16.88;13.23;;;18.50;99.90;;;;;;4992503;28;20109;-52
2023/05/20 09:57:34;;;;;;;15.02;12.75;;;18.60;99.90;;;;;;4992239;28;20397;-51
2023/05/20 10:00:00;;;;;;;15.75;11.60;;;18.70;99.90;;;;;;4992475;28;20046;-53
2023/05/20 10:02:26;;;;;;;14.73;11.18;;;18.80;99.90;;;;;;4992412;28;20054;-48
2023/05/20 10:04:54;;;;;;;16.98;11.93;;;18.90;99.90;;;;;;4992251;28;20037;-49
2023/05/20 10:07:38;;;;;;;17.75;10.93;;;19.00;99.90;;;;;;4992106;28;20018;-51
2023/05/20 10:10:16;;;;;;;14.38;12.88;;;19.10;99.90;;;;;;4992401;28;20367;-50
2023/05/20 10:13:17;;;;;;;14.75;12.82;;;19.30;99.90;;;;;;4992385;28;20100;-48
2023/05/20 10:16:07;;;;;;;13.93;11.55;;;19.40;99.90;;;;;;4987244;28;20128;-55
2023/05/20 10:18:41;;;;;;;19.67;11.80;;;19.60;99.90;;;;;;4992199;28;20030;-53
2023/05/20 10:21:17;;;;;;;12.80;10.98;;;19.60;99.90;;;;;;4991606;28;20031;-49
2023/05/20 10:23:43;;;;;;;14.00;10.32;;;19.60;99.90;;;;;;4992129;28;20018;-52
2023/05/20 10:26:09;;;;;;;14.07;10.63;;;19.60;99.90;;;;;;4975127;28;20042;-53
2023/05/20 10:28:37;;;;;;;11.85;10.65;;;19.60;99.90;;;;;;4991987;28;20496;-55
2023/05/20 10:31:17;;;;;;;13.32;11.68;;;19.50;99.90;;;;;;4992149;28;20065;-52
2023/05/20 10:33:44;;;;;;;14.00;11.82;;;19.50;99.90;;;;;;4992078;28;20033;-51
2023/05/20 10:36:21;;;;;;;;;;;19.40;99.90;;;;;;4992111;28;20042;-50
2023/05/20 10:38:57;;;;;;;14.27;11.15;;;19.40;99.90;;;;;;4992085;28;20000;-47
2023/05/20 10:41:25;;;;;;;15.02;10.55;;;19.50;99.90;;;;;;4992220;28;20077;-54
2023/05/20 10:44:02;;;;;;;12.85;11.07;;;19.60;99.90;;;;;;5002040;28;20025;-52
2023/05/20 10:46:29;;;;;;;14.75;10.40;;;19.80;99.90;;;;;;5010196;28;20049;-51
2023/05/20 10:48:55;;;;;;;11.85;9.98;;;20.00;99.90;;;;;;5005306;28;20117;-52
2023/05/20 10:51:21;;;;;;;10.88;9.70;;;20.20;99.90;;;;;;5010528;28;20101;-51
2023/05/20 10:53:47;;;;;;;17.58;12.25;;;20.30;99.90;;;;;;5009056;28;20172;-50
2023/05/20 10:56:20;;;;;;;13.65;10.98;;;20.40;99.90;;;;;;5008754;28;20105;-48
2023/05/20 10:58:47;;;;;;;12.60;10.43;;;20.30;99.90;;;;;;5007965;28;20120;-49
2023/05/20 11:01:13;;;;;;;12.87;11.43;;;20.00;99.90;;;;;;5009098;28;20049;-51
2023/05/20 11:03:40;;;;;;;13.80;11.83;;;19.90;99.90;;;;;;5010728;28;20049;-53
2023/05/20 11:06:16;;;;;;;16.08;12.07;;;19.70;99.90;;;;;;5010172;28;20060;-51
2023/05/20 11:08:48;;;;;;;15.55;11.68;;;19.60;99.90;;;;;;5011025;28;20104;-60
2023/05/20 11:11:14;;;;;;;12.73;10.98;;;19.50;99.90;;;;;;5007048;28;20083;-49
2023/05/20 11:13:40;;;;;;;13.73;11.63;;;19.50;99.90;;;;;;5010778;28;20033;-52
2023/05/20 11:16:06;;;;;;;13.90;11.38;;;19.40;99.90;;;;;;5009504;28;20029;-53
2023/05/20 11:18:32;;;;;;;13.40;11.77;;;19.30;99.90;;;;;;5010744;28;20362;-52
2023/05/20 11:20:59;;;;;;;16.48;12.65;;;19.30;99.90;;;;;;5011380;28;20109;-53
2023/05/20 11:23:26;;;;;;;;;;;19.30;99.90;;;;;;5011463;28;20053;-53
2023/05/20 11:25:53;;;;;;;15.40;12.40;;;19.20;99.90;;;;;;5009369;28;19913;-54
2023/05/20 11:28:22;;;;;;;15.55;12.55;;;19.20;99.90;;;;;;5011019;28;20042;-54
2023/05/20 11:30:52;;;;;;;14.18;12.45;;;19.10;99.90;;;;;;5010749;28;20092;-53
2023/05/20 11:33:19;;;;;;;16.52;12.70;;;19.00;99.90;;;;;;5013778;28;20396;-51
2023/05/20 11:35:46;;;;;;;16.02;12.77;;;19.00;99.90;;;;;;4996923;28;20466;-50
2023/05/20 11:38:12;;;;;;;15.40;12.00;;;19.00;99.90;;;;;;5013779;28;20053;-50
2023/05/20 11:40:43;;;;;;;14.27;12.73;;;18.90;99.90;;;;;;5014292;28;20030;-49
2023/05/20 11:43:10;;;;;;;18.55;12.98;;;18.90;99.90;;;;;;5014052;28;20026;-47
2023/05/20 11:45:43;;;;;;;16.73;12.38;;;18.90;99.90;;;;;;5014257;28;20034;-51
2023/05/20 11:48:11;;;;;;;14.27;12.77;;;18.90;99.90;;;;;;5013983;28;20033;-49
2023/05/20 11:50:42;;;;;;;15.13;12.85;;;19.00;99.90;;;;;;5014170;28;20397;-47
2023/05/20 11:53:16;;;;;;;15.98;12.10;;;19.00;99.90;;;;;;5014046;28;20022;-46
2023/05/20 11:55:48;;;;;;;17.27;12.80;;;19.10;99.90;;;;;;5013551;28;20057;-51
2023/05/20 11:58:25;;;;;;;15.02;12.23;;;19.10;99.90;;;;;;5013607;28;20057;-51
2023/05/20 12:00:51;;;;;;;15.20;12.38;;;19.20;99.90;;;;;;5013983;28;20106;-53
2023/05/20 12:03:17;;;;;;;15.60;13.63;;;19.20;99.90;;;;;;5013767;28;20049;-50
2023/05/20 12:05:43;;;;;;;16.73;13.70;;;19.20;99.90;;;;;;5014065;28;20026;-54
2023/05/20 12:08:09;;;;;;;15.70;13.93;;;19.10;99.90;;;;;;5013540;28;20093;-51
2023/05/20 12:10:38;;;;;;;18.60;13.52;;;19.10;99.90;;;;;;5013803;28;20030;-52
2023/05/20 12:13:07;;;;;;;18.42;13.23;;;19.10;99.90;;;;;;5014061;28;20030;-51
2023/05/20 12:15:36;;;;;;;18.90;13.60;;;19.10;99.90;;;;;;5013635;28;20124;-52
2023/05/20 12:18:02;;;;;;;19.42;14.27;;;19.10;99.90;;;;;;5013786;28;20480;-56
2023/05/20 12:20:29;;;;;;;18.87;14.60;;;19.00;99.90;;;;;;5013671;28;20050;-52
2023/05/20 12:22:56;;;;;;;17.02;14.05;;;19.00;99.90;;;;;;5013874;28;20029;-54
2023/05/20 12:25:22;;;;;;;24.60;15.95;;;19.00;99.90;;;;;;5013760;28;20029;-54
2023/05/20 12:27:49;;;;;;;20.77;14.77;;;19.00;99.90;;;;;;5009642;28;20497;-55
2023/05/20 12:30:20;;;;;;;18.23;14.73;;;19.00;99.90;;;;;;5013529;28;20031;-54
2023/05/20 12:32:46;;;;;;;17.30;14.35;;;19.00;99.90;;;;;;5013537;28;20030;-55